sensor_id;sensor_type;location;lat;lon;timestamp;pressure;altitude;pressure_sealevel;temperature;humidity
57086;BME280;42964;42.910;23.792;2022-12-29T00:02:38;98607.25;;;5.82;69.65
57086;BME280;42964;42.910;23.792;2022-12-29T00:07:37;98603.09;;;5.87;69.03
57086;BME280;42964;42.910;23.792;2022-12-29T00:12:36;98619.19;;;5.80;68.72
57086;BME280;42964;42.910;23.792;2022-12-29T00:17:53;98620.25;;;5.60;69.01
57086;BME280;42964;42.910;23.792;2022-12-29T00:22:52;98628.13;;;5.64;68.98
57086;BME280;42964;42.910;23.792;2022-12-29T00:28:09;98626.94;;;5.54;69.39
57086;BME280;42964;42.910;23.792;2022-12-29T00:33:32;98630.38;;;5.53;69.22
57086;BME280;42964;42.910;23.792;2022-12-29T00:38:55;98619.63;;;5.41;69.74
57086;BME280;42964;42.910;23.792;2022-12-29T00:44:15;98632.94;;;5.28;70.65
57086;BME280;42964;42.910;23.792;2022-12-29T00:49:14;98623.25;;;5.21;70.94
57086;BME280;42964;42.910;23.792;2022-12-29T00:54:31;98630.09;;;5.20;71.09
57086;BME280;42964;42.910;23.792;2022-12-29T00:59:30;98627.94;;;5.07;71.30
57086;BME280;42964;42.910;23.792;2022-12-29T01:04:29;98633.63;;;4.98;71.32
57086;BME280;42964;42.910;23.792;2022-12-29T01:09:28;98632.72;;;4.74;72.39
57086;BME280;42964;42.910;23.792;2022-12-29T01:14:45;98634.91;;;4.87;72.22
57086;BME280;42964;42.910;23.792;2022-12-29T01:19:44;98626.31;;;4.86;72.00
57086;BME280;42964;42.910;23.792;2022-12-29T01:24:43;98622.31;;;4.70;72.94
57086;BME280;42964;42.910;23.792;2022-12-29T01:29:42;98608.53;;;4.68;72.77
57086;BME280;42964;42.910;23.792;2022-12-29T01:34:41;98603.72;;;4.54;73.50
57086;BME280;42964;42.910;23.792;2022-12-29T01:39:40;98601.06;;;4.28;74.35
57086;BME280;42964;42.910;23.792;2022-12-29T01:45:09;98591.13;;;4.15;74.50
57086;BME280;42964;42.910;23.792;2022-12-29T01:50:12;98564.72;;;3.95;75.31
57086;BME280;42964;42.910;23.792;2022-12-29T01:55:12;98577.66;;;3.75;76.63
57086;BME280;42964;42.910;23.792;2022-12-29T02:00:12;98564.91;;;3.56;77.26
57086;BME280;42964;42.910;23.792;2022-12-29T02:11:09;98558.34;;;3.41;77.93
57086;BME280;42964;42.910;23.792;2022-12-29T02:21:48;98541.75;;;3.54;78.53
57086;BME280;42964;42.910;23.792;2022-12-29T02:32:30;98534.75;;;3.73;78.11
57086;BME280;42964;42.910;23.792;2022-12-29T02:48:10;98526.13;;;3.93;76.49
57086;BME280;42964;42.910;23.792;2022-12-29T02:53:15;98528.06;;;3.76;76.19
57086;BME280;42964;42.910;23.792;2022-12-29T02:58:20;98514.91;;;3.46;76.56
57086;BME280;42964;42.910;23.792;2022-12-29T03:03:44;98533.84;;;3.27;77.10
57086;BME280;42964;42.910;23.792;2022-12-29T03:14:26;98532.94;;;2.85;78.55
57086;BME280;42964;42.910;23.792;2022-12-29T03:19:47;98546.47;;;2.61;78.66
57086;BME280;42964;42.910;23.792;2022-12-29T03:24:50;98547.16;;;2.37;79.89
57086;BME280;42964;42.910;23.792;2022-12-29T03:29:54;98537.81;;;2.19;80.62
57086;BME280;42964;42.910;23.792;2022-12-29T03:34:55;98557.88;;;2.09;80.84
57086;BME280;42964;42.910;23.792;2022-12-29T03:39:55;98559.06;;;1.98;81.83
57086;BME280;42964;42.910;23.792;2022-12-29T03:44:56;98543.81;;;2.01;81.43
57086;BME280;42964;42.910;23.792;2022-12-29T03:49:55;98556.09;;;2.08;82.14
57086;BME280;42964;42.910;23.792;2022-12-29T03:54:54;98544.53;;;2.16;82.15
57086;BME280;42964;42.910;23.792;2022-12-29T03:59:53;98535.50;;;2.25;82.74
57086;BME280;42964;42.910;23.792;2022-12-29T04:04:52;98539.63;;;2.21;83.97
57086;BME280;42964;42.910;23.792;2022-12-29T04:09:50;98533.38;;;2.16;83.46
57086;BME280;42964;42.910;23.792;2022-12-29T04:14:50;98524.91;;;2.17;83.67
57086;BME280;42964;42.910;23.792;2022-12-29T04:19:51;98537.63;;;2.15;83.32
57086;BME280;42964;42.910;23.792;2022-12-29T04:24:50;98543.16;;;2.05;83.62
57086;BME280;42964;42.910;23.792;2022-12-29T04:29:48;98551.63;;;2.04;82.85
57086;BME280;42964;42.910;23.792;2022-12-29T04:34:47;98555.88;;;2.04;82.82
57086;BME280;42964;42.910;23.792;2022-12-29T04:39:46;98561.75;;;2.01;82.79
57086;BME280;42964;42.910;23.792;2022-12-29T04:44:45;98564.91;;;1.95;83.12
57086;BME280;42964;42.910;23.792;2022-12-29T04:49:44;98570.56;;;1.88;83.07
57086;BME280;42964;42.910;23.792;2022-12-29T04:54:43;98567.72;;;1.82;83.27
57086;BME280;42964;42.910;23.792;2022-12-29T04:59:42;98571.75;;;1.77;83.51
57086;BME280;42964;42.910;23.792;2022-12-29T05:04:41;98563.72;;;1.69;83.80
57086;BME280;42964;42.910;23.792;2022-12-29T05:09:40;98573.22;;;1.54;84.32
57086;BME280;42964;42.910;23.792;2022-12-29T05:14:39;98585.13;;;1.53;84.76
57086;BME280;42964;42.910;23.792;2022-12-29T05:19:38;98587.66;;;1.36;85.52
57086;BME280;42964;42.910;23.792;2022-12-29T05:24:37;98581.97;;;1.23;85.98
57086;BME280;42964;42.910;23.792;2022-12-29T05:29:36;98590.91;;;1.15;85.91
57086;BME280;42964;42.910;23.792;2022-12-29T05:34:35;98598.31;;;1.09;86.17
57086;BME280;42964;42.910;23.792;2022-12-29T05:39:34;98597.44;;;1.08;86.12
57086;BME280;42964;42.910;23.792;2022-12-29T05:44:33;98605.16;;;1.10;86.26
57086;BME280;42964;42.910;23.792;2022-12-29T05:49:32;98606.69;;;1.06;85.99
57086;BME280;42964;42.910;23.792;2022-12-29T05:54:31;98615.25;;;1.07;86.32
57086;BME280;42964;42.910;23.792;2022-12-29T05:59:30;98615.00;;;1.02;86.52
57086;BME280;42964;42.910;23.792;2022-12-29T06:04:29;98620.03;;;1.01;86.91
57086;BME280;42964;42.910;23.792;2022-12-29T06:09:28;98619.25;;;1.02;87.02
57086;BME280;42964;42.910;23.792;2022-12-29T06:14:27;98623.41;;;1.00;87.39
57086;BME280;42964;42.910;23.792;2022-12-29T06:19:26;98634.63;;;1.03;87.45
57086;BME280;42964;42.910;23.792;2022-12-29T06:24:24;98630.91;;;0.97;87.81
57086;BME280;42964;42.910;23.792;2022-12-29T06:29:23;98615.59;;;0.97;87.74
57086;BME280;42964;42.910;23.792;2022-12-29T06:34:23;98632.16;;;1.05;87.94
57086;BME280;42964;42.910;23.792;2022-12-29T06:39:22;98624.59;;;1.06;87.54
57086;BME280;42964;42.910;23.792;2022-12-29T06:44:21;98640.84;;;1.25;87.43
57086;BME280;42964;42.910;23.792;2022-12-29T06:49:20;98637.97;;;1.19;87.82
57086;BME280;42964;42.910;23.792;2022-12-29T06:54:19;98648.91;;;1.32;87.43
57086;BME280;42964;42.910;23.792;2022-12-29T06:59:18;98641.59;;;1.40;87.53
57086;BME280;42964;42.910;23.792;2022-12-29T07:04:17;98647.06;;;1.48;87.74
57086;BME280;42964;42.910;23.792;2022-12-29T07:09:16;98650.16;;;1.59;87.34
57086;BME280;42964;42.910;23.792;2022-12-29T07:14:15;98641.03;;;1.64;87.10
57086;BME280;42964;42.910;23.792;2022-12-29T07:19:14;98642.34;;;1.73;87.69
57086;BME280;42964;42.910;23.792;2022-12-29T07:24:13;98642.22;;;1.88;87.35
57086;BME280;42964;42.910;23.792;2022-12-29T07:29:12;98647.47;;;2.09;87.31
57086;BME280;42964;42.910;23.792;2022-12-29T07:34:10;98645.03;;;2.30;86.10
57086;BME280;42964;42.910;23.792;2022-12-29T07:39:09;98645.66;;;2.44;86.29
57086;BME280;42964;42.910;23.792;2022-12-29T07:44:10;98641.41;;;2.45;85.51
57086;BME280;42964;42.910;23.792;2022-12-29T07:49:09;98640.03;;;2.53;85.22
57086;BME280;42964;42.910;23.792;2022-12-29T07:54:08;98614.25;;;2.68;85.07
57086;BME280;42964;42.910;23.792;2022-12-29T07:59:07;98629.72;;;2.90;84.76
57086;BME280;42964;42.910;23.792;2022-12-29T08:04:07;98641.44;;;3.05;84.47
57086;BME280;42964;42.910;23.792;2022-12-29T08:09:06;98629.72;;;3.10;83.98
57086;BME280;42964;42.910;23.792;2022-12-29T08:14:05;98631.75;;;3.17;83.98
57086;BME280;42964;42.910;23.792;2022-12-29T08:19:04;98617.09;;;3.35;83.31
57086;BME280;42964;42.910;23.792;2022-12-29T08:24:03;98626.44;;;3.54;82.72
57086;BME280;42964;42.910;23.792;2022-12-29T08:29:02;98637.00;;;3.62;82.34
57086;BME280;42964;42.910;23.792;2022-12-29T08:34:02;98638.34;;;3.73;82.26
57086;BME280;42964;42.910;23.792;2022-12-29T08:39:03;98614.38;;;3.95;81.78
57086;BME280;42964;42.910;23.792;2022-12-29T08:44:02;98623.81;;;4.19;81.52
57086;BME280;42964;42.910;23.792;2022-12-29T08:49:01;98600.28;;;4.31;81.38
57086;BME280;42964;42.910;23.792;2022-12-29T08:54:00;98606.88;;;4.46;80.39
57086;BME280;42964;42.910;23.792;2022-12-29T08:58:59;98594.44;;;4.57;80.17
57086;BME280;42964;42.910;23.792;2022-12-29T09:03:58;98592.97;;;4.89;79.45
57086;BME280;42964;42.910;23.792;2022-12-29T09:08:57;98588.56;;;5.09;78.97
57086;BME280;42964;42.910;23.792;2022-12-29T09:13:56;98575.56;;;5.30;77.97
57086;BME280;42964;42.910;23.792;2022-12-29T09:18:55;98581.34;;;5.50;77.07
57086;BME280;42964;42.910;23.792;2022-12-29T09:23:54;98569.53;;;5.84;75.51
57086;BME280;42964;42.910;23.792;2022-12-29T09:28:53;98563.53;;;6.14;75.48
57086;BME280;42964;42.910;23.792;2022-12-29T09:33:52;98559.56;;;6.25;73.28
57086;BME280;42964;42.910;23.792;2022-12-29T09:38:53;98554.16;;;6.46;72.37
57086;BME280;42964;42.910;23.792;2022-12-29T09:55:03;98541.78;;;7.31;70.71
57086;BME280;42964;42.910;23.792;2022-12-29T10:01:07;98524.50;;;7.63;70.31
57086;BME280;42964;42.910;23.792;2022-12-29T10:16:18;98510.56;;;8.37;66.79
57086;BME280;42964;42.910;23.792;2022-12-29T10:26:40;98490.75;;;8.83;65.03
57086;BME280;42964;42.910;23.792;2022-12-29T10:31:45;98485.16;;;9.10;64.38
57086;BME280;42964;42.910;23.792;2022-12-29T10:36:54;98477.63;;;9.24;62.67
57086;BME280;42964;42.910;23.792;2022-12-29T10:42:29;98477.97;;;9.46;62.14
57086;BME280;42964;42.910;23.792;2022-12-29T10:47:45;98469.69;;;9.71;61.98
57086;BME280;42964;42.910;23.792;2022-12-29T10:52:47;98463.91;;;9.91;61.17
57086;BME280;42964;42.910;23.792;2022-12-29T10:57:47;98465.97;;;10.15;60.68
57086;BME280;42964;42.910;23.792;2022-12-29T11:08:12;98461.25;;;10.58;60.23
57086;BME280;42964;42.910;23.792;2022-12-29T11:13:25;98447.53;;;10.71;60.16
57086;BME280;42964;42.910;23.792;2022-12-29T11:18:27;98430.31;;;10.81;59.76
57086;BME280;42964;42.910;23.792;2022-12-29T11:23:34;98435.59;;;10.89;60.12
57086;BME280;42964;42.910;23.792;2022-12-29T11:28:33;98413.88;;;10.82;59.33
57086;BME280;42964;42.910;23.792;2022-12-29T11:33:35;98427.94;;;11.02;59.61
57086;BME280;42964;42.910;23.792;2022-12-29T11:38:37;98423.63;;;11.06;59.11
57086;BME280;42964;42.910;23.792;2022-12-29T11:43:44;98423.69;;;11.11;58.74
57086;BME280;42964;42.910;23.792;2022-12-29T11:48:43;98414.13;;;11.10;58.85
57086;BME280;42964;42.910;23.792;2022-12-29T11:53:57;98405.50;;;11.14;59.06
57086;BME280;42964;42.910;23.792;2022-12-29T11:59:25;98415.06;;;11.19;58.26
57086;BME280;42964;42.910;23.792;2022-12-29T12:04:36;98410.81;;;11.29;58.36
57086;BME280;42964;42.910;23.792;2022-12-29T12:09:43;98408.22;;;11.29;57.29
57086;BME280;42964;42.910;23.792;2022-12-29T12:15:04;98407.41;;;11.42;56.64
57086;BME280;42964;42.910;23.792;2022-12-29T12:20:24;98398.78;;;11.43;56.94
57086;BME280;42964;42.910;23.792;2022-12-29T12:25:37;98385.75;;;11.39;56.56
57086;BME280;42964;42.910;23.792;2022-12-29T12:30:45;98382.38;;;11.58;55.65
57086;BME280;42964;42.910;23.792;2022-12-29T12:47:07;98389.44;;;11.87;51.76
57086;BME280;42964;42.910;23.792;2022-12-29T13:03:10;98387.81;;;12.17;51.77
57086;BME280;42964;42.910;23.792;2022-12-29T13:18:58;98413.81;;;12.10;51.30
57086;BME280;42964;42.910;23.792;2022-12-29T13:24:25;98421.59;;;12.07;51.53
57086;BME280;42964;42.910;23.792;2022-12-29T13:29:36;98425.09;;;12.17;51.46
57086;BME280;42964;42.910;23.792;2022-12-29T13:40:00;98408.72;;;12.30;51.83
57086;BME280;42964;42.910;23.792;2022-12-29T13:45:06;98404.38;;;12.33;51.76
57086;BME280;42964;42.910;23.792;2022-12-29T13:50:20;98418.25;;;12.28;50.92
57086;BME280;42964;42.910;23.792;2022-12-29T13:55:32;98422.53;;;12.26;51.12
57086;BME280;42964;42.910;23.792;2022-12-29T14:00:51;98425.13;;;12.23;51.18
57086;BME280;42964;42.910;23.792;2022-12-29T14:06:14;98432.91;;;12.16;51.22
57086;BME280;42964;42.910;23.792;2022-12-29T14:11:16;98431.09;;;11.99;51.72
57086;BME280;42964;42.910;23.792;2022-12-29T14:21:28;98423.22;;;11.76;51.87
57086;BME280;42964;42.910;23.792;2022-12-29T14:36:52;98433.28;;;11.22;53.21
57086;BME280;42964;42.910;23.792;2022-12-29T14:47:08;98439.78;;;10.76;53.81
57086;BME280;42964;42.910;23.792;2022-12-29T14:57:31;98445.34;;;10.27;54.91
57086;BME280;42964;42.910;23.792;2022-12-29T15:02:34;98439.81;;;9.96;55.54
57086;BME280;42964;42.910;23.792;2022-12-29T15:07:37;98454.31;;;9.82;55.55
57086;BME280;42964;42.910;23.792;2022-12-29T15:12:43;98446.25;;;9.62;56.87
57086;BME280;42964;42.910;23.792;2022-12-29T15:17:45;98451.09;;;9.39;57.05
57086;BME280;42964;42.910;23.792;2022-12-29T15:22:45;98445.59;;;9.21;57.95
57086;BME280;42964;42.910;23.792;2022-12-29T15:27:52;98448.03;;;9.10;58.61
57086;BME280;42964;42.910;23.792;2022-12-29T15:32:52;98446.94;;;8.96;59.23
57086;BME280;42964;42.910;23.792;2022-12-29T15:37:51;98450.94;;;8.78;59.52
57086;BME280;42964;42.910;23.792;2022-12-29T15:48:18;98452.88;;;8.40;60.94
57086;BME280;42964;42.910;23.792;2022-12-29T15:53:38;98454.22;;;8.21;61.71
57086;BME280;42964;42.910;23.792;2022-12-29T15:58:45;98456.25;;;7.93;62.74
57086;BME280;42964;42.910;23.792;2022-12-29T16:03:47;98454.94;;;7.73;63.97
57086;BME280;42964;42.910;23.792;2022-12-29T16:14:02;98457.72;;;7.42;65.18
57086;BME280;42964;42.910;23.792;2022-12-29T16:19:12;98461.72;;;7.30;65.39
57086;BME280;42964;42.910;23.792;2022-12-29T16:24:15;98465.75;;;7.18;65.50
57086;BME280;42964;42.910;23.792;2022-12-29T16:29:16;98466.38;;;7.08;66.50
57086;BME280;42964;42.910;23.792;2022-12-29T16:39:34;98473.59;;;6.87;67.41
57086;BME280;42964;42.910;23.792;2022-12-29T16:44:34;98475.09;;;6.78;68.27
57086;BME280;42964;42.910;23.792;2022-12-29T16:49:34;98474.91;;;6.72;68.28
57086;BME280;42964;42.910;23.792;2022-12-29T16:54:36;98487.56;;;6.61;69.03
57086;BME280;42964;42.910;23.792;2022-12-29T16:59:38;98484.00;;;6.58;68.69
57086;BME280;42964;42.910;23.792;2022-12-29T17:04:41;98490.75;;;6.53;69.02
57086;BME280;42964;42.910;23.792;2022-12-29T17:09:40;98486.25;;;6.46;69.89
57086;BME280;42964;42.910;23.792;2022-12-29T17:14:40;98481.81;;;6.40;70.18
57086;BME280;42964;42.910;23.792;2022-12-29T17:19:47;98479.72;;;6.27;70.59
57086;BME280;42964;42.910;23.792;2022-12-29T17:24:47;98478.22;;;6.03;72.83
57086;BME280;42964;42.910;23.792;2022-12-29T17:29:46;98482.31;;;5.96;72.76
57086;BME280;42964;42.910;23.792;2022-12-29T17:34:45;98476.81;;;5.84;72.64
57086;BME280;42964;42.910;23.792;2022-12-29T17:39:44;98473.97;;;5.75;72.98
57086;BME280;42964;42.910;23.792;2022-12-29T17:44:43;98484.63;;;5.59;73.71
57086;BME280;42964;42.910;23.792;2022-12-29T17:49:42;98471.09;;;5.37;74.67
57086;BME280;42964;42.910;23.792;2022-12-29T17:54:51;98474.91;;;5.21;75.52
57086;BME280;42964;42.910;23.792;2022-12-29T17:59:50;98479.69;;;5.10;76.39
57086;BME280;42964;42.910;23.792;2022-12-29T18:04:50;98488.00;;;5.02;76.70
57086;BME280;42964;42.910;23.792;2022-12-29T18:09:49;98484.44;;;4.98;76.48
57086;BME280;42964;42.910;23.792;2022-12-29T18:14:48;98480.81;;;4.93;76.69
57086;BME280;42964;42.910;23.792;2022-12-29T18:19:47;98478.72;;;4.81;77.96
57086;BME280;42964;42.910;23.792;2022-12-29T18:24:48;98483.47;;;4.70;77.94
57086;BME280;42964;42.910;23.792;2022-12-29T18:29:47;98483.16;;;4.61;78.48
57086;BME280;42964;42.910;23.792;2022-12-29T18:34:47;98469.06;;;4.50;78.29
57086;BME280;42964;42.910;23.792;2022-12-29T18:39:46;98481.19;;;4.53;78.53
57086;BME280;42964;42.910;23.792;2022-12-29T18:44:45;98464.53;;;4.43;78.88
57086;BME280;42964;42.910;23.792;2022-12-29T18:49:44;98466.16;;;4.39;79.61
57086;BME280;42964;42.910;23.792;2022-12-29T18:54:43;98471.03;;;4.32;79.74
57086;BME280;42964;42.910;23.792;2022-12-29T18:59:42;98470.78;;;4.25;79.99
57086;BME280;42964;42.910;23.792;2022-12-29T19:04:41;98473.03;;;4.16;80.45
57086;BME280;42964;42.910;23.792;2022-12-29T19:09:40;98467.66;;;4.10;80.94
57086;BME280;42964;42.910;23.792;2022-12-29T19:14:39;98479.59;;;4.08;81.17
57086;BME280;42964;42.910;23.792;2022-12-29T19:19:41;98444.28;;;3.78;81.76
57086;BME280;42964;42.910;23.792;2022-12-29T19:24:40;98480.66;;;3.91;81.88
57086;BME280;42964;42.910;23.792;2022-12-29T19:29:39;98496.78;;;3.86;81.78
57086;BME280;42964;42.910;23.792;2022-12-29T19:34:38;98499.00;;;3.77;82.16
57086;BME280;42964;42.910;23.792;2022-12-29T19:39:37;98490.13;;;3.69;82.30
57086;BME280;42964;42.910;23.792;2022-12-29T19:44:36;98482.91;;;3.59;82.86
57086;BME280;42964;42.910;23.792;2022-12-29T19:49:35;98489.44;;;3.51;83.10
57086;BME280;42964;42.910;23.792;2022-12-29T19:54:34;98475.19;;;3.36;84.52
57086;BME280;42964;42.910;23.792;2022-12-29T19:59:33;98487.16;;;3.36;84.33
57086;BME280;42964;42.910;23.792;2022-12-29T20:04:32;98477.50;;;3.30;84.07
57086;BME280;42964;42.910;23.792;2022-12-29T20:09:31;98492.22;;;3.34;84.77
57086;BME280;42964;42.910;23.792;2022-12-29T20:14:30;98488.50;;;3.26;86.06
57086;BME280;42964;42.910;23.792;2022-12-29T20:19:30;98475.59;;;3.25;85.30
57086;BME280;42964;42.910;23.792;2022-12-29T20:24:31;98479.66;;;3.19;85.72
57086;BME280;42964;42.910;23.792;2022-12-29T20:29:33;98478.09;;;3.23;86.54
57086;BME280;42964;42.910;23.792;2022-12-29T20:34:36;98473.44;;;3.35;86.38
57086;BME280;42964;42.910;23.792;2022-12-29T20:39:35;98483.94;;;3.41;86.72
57086;BME280;42964;42.910;23.792;2022-12-29T20:44:34;98490.84;;;3.42;86.72
57086;BME280;42964;42.910;23.792;2022-12-29T20:49:33;98496.94;;;3.46;86.13
57086;BME280;42964;42.910;23.792;2022-12-29T20:54:33;98490.47;;;3.56;86.16
57086;BME280;42964;42.910;23.792;2022-12-29T20:59:32;98492.63;;;3.68;85.68
57086;BME280;42964;42.910;23.792;2022-12-29T21:04:30;98495.56;;;3.77;86.22
57086;BME280;42964;42.910;23.792;2022-12-29T21:09:29;98469.47;;;3.89;85.78
57086;BME280;42964;42.910;23.792;2022-12-29T21:14:28;98467.13;;;3.95;86.04
57086;BME280;42964;42.910;23.792;2022-12-29T21:19:27;98463.72;;;3.96;85.70
57086;BME280;42964;42.910;23.792;2022-12-29T21:24:26;98467.31;;;3.77;86.16
57086;BME280;42964;42.910;23.792;2022-12-29T21:29:25;98463.13;;;3.56;86.68
57086;BME280;42964;42.910;23.792;2022-12-29T21:34:24;98457.94;;;3.32;86.26
57086;BME280;42964;42.910;23.792;2022-12-29T21:39:23;98464.66;;;3.29;86.13
57086;BME280;42964;42.910;23.792;2022-12-29T21:44:22;98466.09;;;3.22;86.08
57086;BME280;42964;42.910;23.792;2022-12-29T21:49:39;98449.41;;;3.11;86.39
57086;BME280;42964;42.910;23.792;2022-12-29T21:54:38;98471.34;;;3.04;86.37
57086;BME280;42964;42.910;23.792;2022-12-29T21:59:56;98459.75;;;2.91;87.81
57086;BME280;42964;42.910;23.792;2022-12-29T22:05:14;98448.38;;;2.85;88.22
57086;BME280;42964;42.910;23.792;2022-12-29T22:10:32;98455.19;;;2.84;87.96
57086;BME280;42964;42.910;23.792;2022-12-29T22:15:50;98457.75;;;2.84;88.33
57086;BME280;42964;42.910;23.792;2022-12-29T22:20:49;98452.94;;;2.71;89.26
57086;BME280;42964;42.910;23.792;2022-12-29T22:25:48;98457.38;;;2.75;88.36
57086;BME280;42964;42.910;23.792;2022-12-29T22:30:48;98454.84;;;2.76;88.81
57086;BME280;42964;42.910;23.792;2022-12-29T22:35:47;98454.09;;;2.79;88.57
57086;BME280;42964;42.910;23.792;2022-12-29T22:40:46;98450.97;;;2.65;88.47
57086;BME280;42964;42.910;23.792;2022-12-29T22:45:45;98451.59;;;2.59;88.86
57086;BME280;42964;42.910;23.792;2022-12-29T22:50:44;98447.41;;;2.62;89.02
57086;BME280;42964;42.910;23.792;2022-12-29T22:55:43;98433.38;;;2.73;88.77
57086;BME280;42964;42.910;23.792;2022-12-29T23:00:42;98450.75;;;2.80;89.35
57086;BME280;42964;42.910;23.792;2022-12-29T23:05:41;98442.22;;;2.81;89.91
57086;BME280;42964;42.910;23.792;2022-12-29T23:10:40;98428.97;;;2.91;89.31
57086;BME280;42964;42.910;23.792;2022-12-29T23:15:39;98434.53;;;3.02;89.29
57086;BME280;42964;42.910;23.792;2022-12-29T23:20:39;98417.69;;;3.09;89.73
57086;BME280;42964;42.910;23.792;2022-12-29T23:25:38;98413.59;;;3.14;90.01
57086;BME280;42964;42.910;23.792;2022-12-29T23:30:37;98426.34;;;3.33;89.76
57086;BME280;42964;42.910;23.792;2022-12-29T23:35:36;98422.19;;;3.37;89.99
57086;BME280;42964;42.910;23.792;2022-12-29T23:40:35;98412.97;;;3.42;89.17
57086;BME280;42964;42.910;23.792;2022-12-29T23:45:34;98414.94;;;3.49;88.94
57086;BME280;42964;42.910;23.792;2022-12-29T23:50:34;98417.81;;;3.57;88.80
57086;BME280;42964;42.910;23.792;2022-12-29T23:55:40;98409.06;;;3.52;88.73
